Time;durP1;ratioP1;P1;durP2;ratioP2;P2;SDS_P1;SDS_P2;PMS_P1;PMS_P2;Temp;Humidity;BMP_temperature;BMP_pressure;BME280_temperature;BME280_humidity;BME280_pressure;Samples;Min_cycle;Max_cycle;Signal;HPM_P1;HPM_P2
2024/01/10 00:01:05;;;;;;;7.68;3.58;;;;;;;2.62;71.44;102558.47;5036147;28;20060;-91
2024/01/10 00:03:55;;;;;;;7.13;4.15;;;;;;;2.81;69.63;102595.00;5045266;28;20021;-90
2024/01/10 00:06:26;;;;;;;9.65;3.65;;;;;;;2.64;70.11;102575.00;5030859;28;20056;-91
2024/01/10 00:09:05;;;;;;;6.38;3.58;;;;;;;3.43;70.99;102703.59;5037730;28;20111;-90
2024/01/10 00:11:58;;;;;;;7.05;3.80;;;;;;;2.57;71.07;102553.53;5042788;28;20512;-90
2024/01/10 00:14:46;;;;;;;6.82;3.72;;;;;;;3.35;70.19;102706.06;5034699;28;20033;-91
2024/01/10 00:17:22;;;;;;;7.40;3.85;;;;;;;2.43;70.76;102577.72;5053007;28;20052;-92
2024/01/10 00:20:02;;;;;;;7.28;4.00;;;;;;;3.17;69.75;102707.44;5049033;28;20029;-91
2024/01/10 00:22:57;;;;;;;7.82;3.88;;;;;;;3.28;70.49;102731.91;5057605;28;20441;-91
2024/01/10 00:26:08;;;;;;;6.15;3.47;;;;;;;3.38;70.10;102739.97;5036284;28;20033;-90
2024/01/10 00:32:55;;;;;;;5.47;3.08;;;;;;;3.28;70.32;102769.00;5063762;28;20039;-91
2024/01/10 00:35:48;;;;;;;7.15;3.38;;;;;;;3.35;71.24;102779.28;5006989;28;20442;-91
2024/01/10 00:41:22;;;;;;;7.25;3.30;;;;;;;3.21;70.87;102744.09;5025258;28;20030;-91
2024/01/10 00:43:49;;;;;;;6.43;3.40;;;;;;;3.28;71.21;102747.41;4996642;28;20512;-89
2024/01/10 00:46:23;;;;;;;6.55;3.13;;;;;;;3.52;71.27;102803.56;5052497;28;20413;-91
2024/01/10 00:49:08;;;;;;;7.97;3.05;;;;;;;3.54;71.50;102797.81;5039209;28;20024;-90
2024/01/10 00:51:35;;;;;;;7.97;3.20;;;;;;;2.85;70.95;102694.31;5061860;28;20505;-90
2024/01/10 00:54:11;;;;;;;7.75;3.45;;;;;;;3.30;69.88;102779.47;5040033;28;20036;-91
2024/01/10 00:56:39;;;;;;;5.97;3.00;;;;;;;2.91;71.16;102710.53;5052325;28;20040;-90
2024/01/10 00:59:15;;;;;;;5.82;3.05;;;;;;;3.41;71.54;102782.56;5052584;28;20165;-89
2024/01/10 01:01:50;;;;;;;8.18;3.70;;;;;;;3.24;70.88;102739.31;5078737;28;20147;-92
2024/01/10 01:04:34;;;;;;;6.55;3.58;;;;;;;2.97;69.75;102725.81;5060546;28;20035;-91
2024/01/10 01:07:04;;;;;;;7.50;3.40;;;;;;;3.22;70.96;102766.63;5049283;28;20119;-91
2024/01/10 01:09:30;;;;;;;7.45;3.50;;;;;;;3.15;70.89;102747.66;5060100;28;20031;-91
2024/01/10 01:11:57;;;;;;;6.07;3.45;;;;;;;3.03;71.54;102732.59;5043773;28;20413;-92
2024/01/10 01:14:24;;;;;;;7.10;3.08;;;;;;;3.01;71.11;102720.25;5054542;28;20032;-91
2024/01/10 01:17:31;;;;;;;5.80;3.45;;;;;;;3.10;70.77;102747.13;5047928;28;20063;-91
2024/01/10 01:20:02;;;;;;;6.35;3.30;;;;;;;3.32;70.94;102771.16;5069357;28;20047;-91
2024/01/10 01:22:28;;;;;;;7.68;3.60;;;;;;;2.99;70.18;102744.97;5058978;28;20466;-91
2024/01/10 01:24:54;;;;;;;10.13;3.50;;;;;;;2.80;71.22;102706.69;5061487;28;20055;-89
2024/01/10 01:27:21;;;;;;;7.38;3.28;;;;;;;3.30;71.58;102779.47;5070754;28;20044;-92
2024/01/10 01:29:51;;;;;;;7.10;3.30;;;;;;;3.27;71.24;102780.06;5049624;28;20020;-90
2024/01/10 01:32:23;;;;;;;7.05;3.53;;;;;;;3.29;70.95;102780.25;5058901;28;20044;-90
2024/01/10 01:35:01;;;;;;;5.63;3.08;;;;;;;3.42;71.41;102799.88;5050656;28;20060;-91
2024/01/10 01:37:31;;;;;;;6.32;3.20;;;;;;;3.29;71.12;102760.50;5049066;28;20036;-90
2024/01/10 01:40:03;;;;;;;5.38;3.05;;;;;;;3.45;70.64;102786.41;5057565;28;20054;-91
2024/01/10 01:42:48;;;;;;;6.07;3.13;;;;;;;3.69;70.58;102823.56;5078384;28;20028;-91
2024/01/10 01:45:15;;;;;;;6.97;3.17;;;;;;;3.67;71.03;102829.47;5050277;28;20024;-90
2024/01/10 01:47:48;;;;;;;5.95;3.10;;;;;;;3.09;70.35;102724.66;5059721;28;20059;-93
2024/01/10 01:51:06;;;;;;;5.00;2.88;;;;;;;3.76;70.80;102832.19;5074234;28;20115;-92
2024/01/10 01:53:49;;;;;;;6.35;3.10;;;;;;;3.54;70.88;102786.56;5071666;28;20107;-92
2024/01/10 01:56:16;;;;;;;7.47;3.35;;;;;;;3.77;70.76;102825.38;5059239;28;20067;-92
2024/01/10 01:58:55;;;;;;;6.65;3.00;;;;;;;3.65;71.01;102806.78;5076986;28;20112;-92
2024/01/10 02:01:22;;;;;;;7.28;3.13;;;;;;;3.59;70.52;102801.81;5076536;28;20121;-93
2024/01/10 02:03:56;;;;;;;6.50;3.10;;;;;;;3.81;71.19;102837.84;5080652;28;20069;-93
2024/01/10 02:06:25;;;;;;;4.95;2.65;;;;;;;3.82;70.71;102838.03;5059457;28;20036;-92
2024/01/10 02:09:03;;;;;;;6.50;3.10;;;;;;;3.78;70.75;102838.44;5077025;28;20067;-91
2024/01/10 02:11:44;;;;;;;6.40;2.90;;;;;;;3.81;70.98;102855.94;5081336;28;20434;-91
2024/01/10 02:14:11;;;;;;;4.90;2.83;;;;;;;3.63;71.18;102850.53;5065150;28;20047;-93
2024/01/10 02:16:43;;;;;;;6.97;3.00;;;;;;;3.50;71.38;102816.28;5070045;28;20081;-93
2024/01/10 02:19:23;;;;;;;5.07;3.20;;;;;;;3.72;71.72;102853.25;5057458;28;20031;-92
2024/01/10 02:22:38;;;;;;;7.20;3.22;;;;;;;3.31;71.58;102790.00;5075118;28;20024;-93
2024/01/10 02:25:42;;;;;;;5.15;2.80;;;;;;;3.70;71.02;102838.31;5054224;28;20378;-93
2024/01/10 02:28:11;;;;;;;5.75;2.88;;;;;;;3.46;71.66;102809.84;5091690;28;20047;-93
2024/01/10 02:30:54;;;;;;;6.55;3.00;;;;;;;3.36;72.02;102803.44;5082632;28;20079;-91
2024/01/10 02:33:22;;;;;;;4.78;2.92;;;;;;;3.67;71.39;102862.13;5066668;28;20036;-92
2024/01/10 02:35:48;;;;;;;6.93;2.88;;;;;;;3.53;71.22;102823.44;5068407;28;20111;-90
2024/01/10 02:38:26;;;;;;;8.85;3.70;;;;;;;2.77;71.39;102697.69;5068435;28;20127;-91
2024/01/10 02:40:53;;;;;;;6.20;3.22;;;;;;;3.10;70.54;102770.34;5075073;28;20035;-90
2024/01/10 02:43:29;;;;;;;5.72;3.38;;;;;;;3.13;71.57;102768.09;5070590;28;20504;-89
2024/01/10 02:46:00;;;;;;;7.05;3.60;;;;;;;3.44;71.52;102826.81;5087202;28;20039;-90
2024/01/10 02:49:09;;;;;;;5.57;2.83;;;;;;;3.65;71.20;102854.19;5067579;28;20056;-91
2024/01/10 02:52:23;;;;;;;5.00;3.00;;;;;;;3.66;71.37;102845.72;5095257;28;20040;-91
2024/01/10 02:54:59;;;;;;;5.13;2.60;;;;;;;2.87;71.08;102723.81;5090172;28;20048;-92
2024/01/10 02:57:35;;;;;;;5.45;3.17;;;;;;;3.35;71.67;102809.34;5039780;28;20807;-91
2024/01/10 03:00:14;;;;;;;6.57;3.22;;;;;;;3.63;71.47;102852.19;5042261;28;20072;-91
2024/01/10 03:03:00;;;;;;;4.95;2.85;;;;;;;2.94;71.37;102734.13;5041219;28;20061;-91
2024/01/10 03:05:40;;;;;;;4.40;2.63;;;;;;;3.00;71.39;102747.69;5039115;28;20032;-91
2024/01/10 03:08:09;;;;;;;6.60;2.97;;;;;;;3.14;71.69;102761.31;5038681;28;20029;-88
2024/01/10 03:10:34;;;;;;;5.90;2.88;;;;;;;3.21;71.33;102766.44;5035238;28;20090;-90
2024/01/10 03:13:29;;;;;;;6.65;3.10;;;;;;;3.70;71.13;102857.31;5028932;28;20037;-89
2024/01/10 03:16:35;;;;;;;5.35;3.08;;;;;;;3.37;71.04;102794.97;5052317;28;20020;-89
2024/01/10 03:19:13;;;;;;;5.03;2.88;;;;;;;2.96;71.02;102730.03;4989858;28;20051;-88
2024/01/10 03:21:49;;;;;;;6.53;3.10;;;;;;;3.30;71.06;102779.47;5024381;28;20098;-89
2024/01/10 03:24:19;;;;;;;5.55;2.80;;;;;;;3.26;71.49;102775.66;5032282;28;20066;-88
2024/01/10 03:26:45;;;;;;;5.18;2.65;;;;;;;3.29;71.09;102772.50;5038194;28;20043;-88
2024/01/10 03:29:17;;;;;;;4.95;2.58;;;;;;;3.70;71.26;102838.31;5036678;28;20040;-90
2024/01/10 03:31:45;;;;;;;4.90;2.97;;;;;;;3.23;71.39;102759.78;5036722;28;20032;-89
2024/01/10 03:34:17;;;;;;;5.65;2.80;;;;;;;3.65;71.40;102837.78;5029114;28;20028;-89
2024/01/10 03:36:43;;;;;;;7.60;3.05;;;;;;;3.21;71.61;102762.19;5028356;28;20029;-88
2024/01/10 03:39:11;;;;;;;6.90;3.08;;;;;;;3.12;71.79;102752.47;5045806;28;20023;-88
2024/01/10 03:41:47;;;;;;;3.95;2.67;;;;;;;3.46;71.34;102814.09;5038149;28;20716;-89
2024/01/10 03:44:21;;;;;;;5.28;2.90;;;;;;;3.73;71.40;102854.19;5036995;28;20059;-89
2024/01/10 03:46:46;;;;;;;4.88;3.10;;;;;;;3.64;71.62;102826.53;5033255;28;20115;-88
2024/01/10 03:49:15;;;;;;;6.38;3.45;;;;;;;3.75;71.19;102855.28;5029692;28;20059;-89
2024/01/10 03:51:46;;;;;;;6.30;2.97;;;;;;;3.78;71.14;102853.94;5017205;28;20033;-89
2024/01/10 03:54:11;;;;;;;4.93;2.75;;;;;;;3.58;71.25;102809.44;5021067;28;20024;-88
2024/01/10 03:57:21;;;;;;;5.35;2.95;;;;;;;3.78;71.17;102853.94;5079954;28;20066;-90
2024/01/10 03:59:53;;;;;;;4.93;2.70;;;;;;;3.37;71.35;102780.38;5073399;28;20124;-89
2024/01/10 04:02:25;;;;;;;5.47;2.42;;;;;;;3.36;71.42;102791.44;5065024;28;20130;-89
2024/01/10 04:04:50;;;;;;;5.57;2.50;;;;;;;3.21;71.54;102761.25;5063579;28;20028;-89
2024/01/10 04:08:03;;;;;;;;;;;;;;;;;;;;;
2024/01/10 04:10:30;;;;;;;4.75;2.55;;;;;;;3.49;71.27;102829.91;5078869;28;20044;-89
2024/01/10 04:12:56;;;;;;;5.40;2.72;;;;;;;2.98;71.47;102746.59;5070591;28;20042;-89
2024/01/10 04:15:23;;;;;;;6.28;2.80;;;;;;;3.09;71.30;102758.22;5086725;28;20028;-89
2024/01/10 04:21:17;;;;;;;6.53;2.80;;;;;;;3.30;71.97;102800.13;5080076;28;20905;-93
2024/01/10 04:24:17;;;;;;;3.42;2.30;;;;;;;3.75;71.63;102883.72;5068063;28;20028;-92
2024/01/10 04:30:31;;;;;;;4.80;2.58;;;;;;;3.03;71.63;102778.13;5084218;28;20093;-91
2024/01/10 04:40:07;;;;;;;5.30;2.85;;;;;;;3.67;71.08;102914.72;5036790;28;20098;-91
2024/01/10 04:42:55;;;;;;;;;;;;;;;;;;;;;
2024/01/10 04:45:42;;;;;;;5.43;2.67;;;;;;;3.38;71.19;102861.34;5026032;28;20043;-91
2024/01/10 04:48:35;;;;;;;6.53;3.20;;;;;;;3.66;70.75;102915.50;5010855;28;20033;-91
2024/01/10 04:51:09;;;;;;;6.75;3.10;;;;;;;3.31;71.09;102846.81;5026676;28;20523;-91
2024/01/10 04:53:48;;;;;;;5.43;3.00;;;;;;;3.11;71.38;102817.72;5017446;28;20064;-92
2024/01/10 04:56:20;;;;;;;6.72;3.30;;;;;;;3.11;71.64;102831.59;5021079;28;20046;-92
2024/01/10 04:59:15;;;;;;;5.38;2.75;;;;;;;3.65;70.91;102930.81;5012200;28;20025;-92
2024/01/10 05:02:00;;;;;;;5.85;2.92;;;;;;;3.61;71.59;102931.19;5024996;28;20040;-91
2024/01/10 05:04:27;;;;;;;4.93;3.08;;;;;;;3.13;71.53;102852.38;5015855;28;20600;-91
2024/01/10 05:06:54;;;;;;;5.88;3.20;;;;;;;3.39;71.39;102895.09;5019494;28;20071;-92
2024/01/10 05:09:36;;;;;;;4.80;2.63;;;;;;;3.19;71.79;102876.34;5025502;28;20029;-91
2024/01/10 05:12:04;;;;;;;6.85;3.20;;;;;;;3.47;71.88;102921.81;5018299;28;20466;-90
2024/01/10 05:14:50;;;;;;;7.88;3.30;;;;;;;3.54;71.88;102947.63;5003734;28;20029;-91
2024/01/10 05:17:23;;;;;;;6.63;3.17;;;;;;;3.18;72.04;102875.44;5020631;28;20025;-91
2024/01/10 05:19:50;;;;;;;6.78;3.33;;;;;;;3.38;71.65;102921.66;5060955;28;20035;-90
2024/01/10 05:22:19;;;;;;;6.18;3.15;;;;;;;3.35;71.62;102912.66;5068556;28;20036;-91
2024/01/10 05:24:45;;;;;;;5.65;3.00;;;;;;;3.14;71.57;102890.41;5069243;28;20028;-89
2024/01/10 05:27:11;;;;;;;6.25;3.25;;;;;;;3.05;72.04;102891.16;5070877;28;20132;-92
2024/01/10 05:30:09;;;;;;;7.60;3.13;;;;;;;3.50;71.91;102966.09;5061633;28;20134;-92
2024/01/10 05:32:44;;;;;;;4.72;3.00;;;;;;;3.37;71.82;102949.91;5085648;28;20047;-91
2024/01/10 05:35:39;;;;;;;4.93;2.87;;;;;;;3.52;72.11;102981.78;5070639;28;20027;-92
2024/01/10 05:38:13;;;;;;;5.22;2.80;;;;;;;2.93;71.23;102883.63;5071944;28;20081;-93
2024/01/10 05:40:48;;;;;;;6.75;2.92;;;;;;;2.90;71.89;102879.00;5084914;28;20031;-92
2024/01/10 05:46:43;;;;;;;5.63;2.97;;;;;;;2.96;71.81;102902.94;5077238;28;20140;-94
2024/01/10 05:49:14;;;;;;;7.60;2.97;;;;;;;3.13;71.07;102941.06;5075679;28;20326;-92
2024/01/10 05:54:51;;;;;;;5.78;2.85;;;;;;;3.07;71.58;102945.53;5083894;28;20626;-92
2024/01/10 05:57:40;;;;;;;7.28;3.03;;;;;;;3.54;71.25;103016.47;5054612;28;20135;-94
2024/01/10 06:00:12;;;;;;;5.70;2.70;;;;;;;3.51;71.32;103009.25;5062081;28;20846;-94
2024/01/10 06:03:00;;;;;;;4.57;2.67;;;;;;;3.48;71.18;103014.06;5055953;28;20113;-92
2024/01/10 06:05:35;;;;;;;4.25;2.55;;;;;;;2.69;71.21;102871.28;5058624;28;20462;-93
2024/01/10 06:08:07;;;;;;;5.18;2.58;;;;;;;2.74;70.43;102890.81;5081431;28;20107;-89
2024/01/10 06:10:40;;;;;;;4.82;2.33;;;;;;;2.97;71.84;102929.69;5051283;28;20028;-92
2024/01/10 06:13:07;;;;;;;5.43;2.75;;;;;;;3.16;70.94;102964.69;5053413;28;20471;-92
2024/01/10 06:16:09;;;;;;;4.15;2.42;;;;;;;3.53;70.92;103023.28;5050438;28;20437;-91
2024/01/10 06:18:58;;;;;;;4.22;2.40;;;;;;;2.74;70.87;102880.50;5055435;28;20025;-93
2024/01/10 06:21:28;;;;;;;4.57;2.40;;;;;;;3.39;70.93;103011.31;5054916;28;20020;-93
2024/01/10 06:24:06;;;;;;;4.60;2.30;;;;;;;3.44;71.55;103006.69;5070730;28;20071;-92
2024/01/10 06:26:35;;;;;;;6.50;2.60;;;;;;;3.20;71.11;102966.00;5052308;28;20058;-92
2024/01/10 06:29:03;;;;;;;4.25;2.60;;;;;;;3.10;70.80;102966.53;5056792;28;20083;-93
2024/01/10 06:31:34;;;;;;;3.67;2.40;;;;;;;2.86;71.57;102910.34;5055566;28;20482;-92
2024/01/10 06:34:08;;;;;;;3.55;2.38;;;;;;;3.14;70.83;102948.09;5047747;28;20032;-91
2024/01/10 06:36:41;;;;;;;3.80;2.15;;;;;;;3.29;71.41;102977.41;5057414;28;20031;-92
2024/01/10 06:39:15;;;;;;;4.57;2.13;;;;;;;3.25;71.08;102981.28;5057448;28;20024;-93
2024/01/10 06:45:06;;;;;;;4.13;2.28;;;;;;;3.00;71.24;102941.28;5087342;28;20035;-93
2024/01/10 06:51:38;;;;;;;4.88;2.13;;;;;;;3.40;71.65;103038.97;5074984;28;20055;-92
2024/01/10 06:54:48;;;;;;;4.57;2.70;;;;;;;3.44;71.69;103048.03;5067517;28;20119;-93
2024/01/10 06:57:41;;;;;;;5.13;2.30;;;;;;;3.42;71.08;103042.66;5075045;28;20052;-94
2024/01/10 07:00:10;;;;;;;3.60;2.17;;;;;;;2.99;71.02;102959.19;5073006;28;20024;-90
2024/01/10 07:03:05;;;;;;;3.05;2.03;;;;;;;3.01;70.55;102968.94;5071598;28;20039;-90
2024/01/10 07:05:38;;;;;;;5.22;2.55;;;;;;;3.29;70.82;103020.38;4990374;28;20050;-91
2024/01/10 07:08:18;;;;;;;5.85;2.70;;;;;;;3.44;71.29;103058.38;5008745;28;20125;-90
2024/01/10 07:11:05;;;;;;;4.57;2.80;;;;;;;3.46;71.12;103057.81;5013209;28;20037;-90
2024/01/10 07:14:10;;;;;;;4.60;2.67;;;;;;;3.44;71.08;103051.53;4993999;28;20543;-92
2024/01/10 07:16:45;;;;;;;5.43;2.70;;;;;;;2.70;71.28;102917.91;4992636;28;20026;-91
2024/01/10 07:19:58;;;;;;;4.57;2.47;;;;;;;2.70;71.19;102929.91;4995208;28;20080;-91
2024/01/10 07:22:24;;;;;;;4.63;2.25;;;;;;;2.81;71.13;102945.00;4985986;28;20120;-90
2024/01/10 07:24:50;;;;;;;6.38;2.63;;;;;;;3.46;71.15;103059.47;4998496;28;20241;-90
2024/01/10 07:27:19;;;;;;;4.45;2.67;;;;;;;2.86;70.73;102949.06;5001840;28;20042;-91
2024/01/10 07:29:48;;;;;;;5.32;2.63;;;;;;;3.38;71.64;103026.63;5031984;28;20116;-91
2024/01/10 07:32:54;;;;;;;3.60;2.38;;;;;;;3.48;71.46;103052.81;5056831;28;20032;-94
2024/01/10 07:36:03;;;;;;;6.45;2.55;;;;;;;3.37;71.55;103036.06;5065556;28;20031;-91
2024/01/10 07:38:37;;;;;;;4.15;2.38;;;;;;;2.96;70.82;102958.81;5067559;28;20032;-93
2024/01/10 07:41:11;;;;;;;6.25;2.45;;;;;;;3.35;71.37;103039.19;5053641;28;20036;-92
2024/01/10 07:43:57;;;;;;;3.85;2.42;;;;;;;3.26;70.80;103019.28;5058992;28;20040;-90
2024/01/10 07:46:47;;;;;;;5.40;2.53;;;;;;;3.26;71.14;103014.13;5053149;28;20067;-92
2024/01/10 07:49:53;;;;;;;4.07;2.33;;;;;;;3.47;70.01;103043.22;5065292;28;20033;-90
2024/01/10 07:52:19;;;;;;;5.47;2.50;;;;;;;3.20;71.07;102995.31;5050706;28;20023;-92
2024/01/10 07:54:44;;;;;;;7.10;2.70;;;;;;;3.31;71.10;103003.41;5056536;28;20097;-89
2024/01/10 07:57:11;;;;;;;3.72;2.20;;;;;;;3.11;70.56;102970.03;5070973;28;20524;-89
2024/01/10 07:59:37;;;;;;;4.30;2.55;;;;;;;3.54;70.93;103055.22;5069288;28;20066;-89
2024/01/10 08:02:03;;;;;;;5.32;3.08;;;;;;;3.08;71.07;102973.19;5065251;28;20056;-90
2024/01/10 08:04:31;;;;;;;4.93;2.40;;;;;;;3.16;71.09;102976.69;5065566;28;20500;-90
2024/01/10 08:07:09;;;;;;;5.43;2.60;;;;;;;3.57;70.74;103042.66;5071188;28;20059;-90
2024/01/10 08:09:59;;;;;;;4.43;2.35;;;;;;;3.53;71.74;103051.69;5083426;28;20489;-92
2024/01/10 08:12:26;;;;;;;4.43;2.88;;;;;;;3.20;71.22;102984.06;5066474;28;20078;-91
2024/01/10 08:15:11;;;;;;;5.18;2.50;;;;;;;3.09;71.20;102962.13;5064773;28;20404;-93
2024/01/10 08:18:07;;;;;;;4.10;2.50;;;;;;;3.57;71.05;103042.66;5070015;28;20043;-94
2024/01/10 08:20:39;;;;;;;4.70;2.60;;;;;;;3.10;71.19;102963.97;5085837;28;20114;-91
2024/01/10 08:23:14;;;;;;;4.75;2.60;;;;;;;2.89;70.81;102909.78;5067018;28;20558;-93
2024/01/10 08:29:30;;;;;;;4.72;2.45;;;;;;;3.67;70.97;103036.19;5080992;28;20050;-92
2024/01/10 08:32:21;;;;;;;4.72;2.50;;;;;;;3.67;71.18;103041.34;5069952;28;20397;-92
2024/01/10 08:38:42;;;;;;;5.10;2.17;;;;;;;3.66;71.37;103030.81;5078750;28;20097;-93
2024/01/10 08:41:24;;;;;;;5.60;2.70;;;;;;;3.47;71.19;102997.66;5072357;28;20493;-90
2024/01/10 08:43:55;;;;;;;4.07;2.55;;;;;;;2.93;71.30;102902.59;5066842;28;20040;-91
2024/01/10 08:46:24;;;;;;;3.53;2.30;;;;;;;2.91;71.02;102892.84;5070941;28;20036;-90
2024/01/10 08:48:53;;;;;;;5.85;2.63;;;;;;;3.17;70.62;102937.22;5072456;28;20035;-92
2024/01/10 08:51:49;;;;;;;3.92;2.35;;;;;;;3.67;70.97;103031.00;5058795;28;20035;-95
2024/01/10 08:54:19;;;;;;;6.38;2.70;;;;;;;3.37;71.19;102986.06;5085440;28;20035;-93
2024/01/10 08:57:39;;;;;;;6.20;2.30;;;;;;;3.60;71.60;103020.69;5067008;28;20477;-94
2024/01/10 09:03:39;;;;;;;4.65;2.45;;;;;;;3.60;70.85;102999.13;5092191;28;20135;-94
2024/01/10 09:06:39;;;;;;;5.53;2.40;;;;;;;3.63;71.21;102999.47;5067455;28;20100;-93
2024/01/10 09:09:25;;;;;;;5.57;2.25;;;;;;;3.67;71.00;102996.50;5055219;28;20055;-91
2024/01/10 09:12:33;;;;;;;3.13;2.17;;;;;;;3.69;71.71;102994.09;5066377;28;20120;-91
2024/01/10 09:15:27;;;;;;;3.92;2.45;;;;;;;3.65;71.28;102993.72;5086600;28;20020;-93
2024/01/10 09:21:57;;;;;;;4.93;2.55;;;;;;;3.64;71.14;102976.41;5093921;28;20119;-93
2024/01/10 09:24:25;;;;;;;5.90;2.97;;;;;;;3.52;71.18;102958.53;5099501;28;20031;-91
2024/01/10 09:26:53;;;;;;;6.78;3.40;;;;;;;3.10;71.22;102880.44;5085690;28;20109;-90
2024/01/10 09:29:34;;;;;;;6.15;3.30;;;;;;;3.50;70.97;102954.84;5089585;28;20036;-91
2024/01/10 09:32:04;;;;;;;5.38;3.13;;;;;;;3.25;70.73;102897.72;5087390;28;20032;-91
2024/01/10 09:34:32;;;;;;;4.47;2.92;;;;;;;3.18;71.10;102885.75;5093489;28;20032;-90
2024/01/10 09:37:07;;;;;;;5.78;2.95;;;;;;;3.46;71.17;102935.47;5101322;28;20032;-91
2024/01/10 09:39:34;;;;;;;5.22;2.92;;;;;;;3.06;71.21;102864.56;5104486;28;20111;-90
2024/01/10 09:42:10;;;;;;;5.32;3.13;;;;;;;3.43;70.96;102925.72;5086470;28;20016;-92
2024/01/10 09:44:41;;;;;;;6.82;3.15;;;;;;;3.01;71.19;102851.88;5091598;28;20023;-91
2024/01/10 09:47:08;;;;;;;8.88;3.17;;;;;;;3.21;71.39;102875.78;5097859;28;20055;-91
2024/01/10 09:49:45;;;;;;;5.20;2.97;;;;;;;2.95;71.59;102830.53;5082780;28;20585;-90
2024/01/10 09:53:17;;;;;;;5.50;3.13;;;;;;;3.05;71.01;102843.78;5079089;28;20052;-91
2024/01/10 09:55:43;;;;;;;7.25;3.17;;;;;;;3.50;71.22;102934.19;5017001;28;20045;-90
2024/01/10 09:58:26;;;;;;;5.03;2.72;;;;;;;3.45;71.53;102934.56;5013980;28;20030;-91
2024/01/10 10:00:53;;;;;;;5.35;2.70;;;;;;;3.03;71.30;102850.41;5001477;28;20040;-92
2024/01/10 10:03:21;;;;;;;5.53;2.72;;;;;;;3.45;71.44;102928.47;5016605;28;20120;-91
2024/01/10 10:05:55;;;;;;;5.07;2.80;;;;;;;3.01;71.38;102838.97;5076148;28;20500;-95
2024/01/10 10:08:25;;;;;;;5.03;2.67;;;;;;;3.30;71.12;102872.44;5079437;28;20040;-95
2024/01/10 10:11:15;;;;;;;4.85;2.95;;;;;;;3.69;71.56;102943.34;5080269;28;20066;-95
2024/01/10 10:13:41;;;;;;;5.57;2.50;;;;;;;3.19;71.63;102854.03;5074384;28;20524;-95
2024/01/10 10:16:09;;;;;;;4.97;2.80;;;;;;;3.56;71.86;102910.00;5072404;28;20039;-94
2024/01/10 10:18:36;;;;;;;4.22;2.75;;;;;;;3.62;71.57;102915.88;5070048;28;20410;-93
2024/01/10 10:21:13;;;;;;;5.13;2.70;;;;;;;3.60;71.94;102908.69;5069290;28;20082;-95
2024/01/10 10:23:41;;;;;;;4.63;2.83;;;;;;;3.00;71.29;102799.31;5066978;28;20029;-95
2024/01/10 10:26:29;;;;;;;4.30;2.58;;;;;;;3.76;71.96;102927.78;5071015;28;20398;-95
2024/01/10 10:29:02;;;;;;;4.47;2.83;;;;;;;3.49;71.91;102876.41;5060329;28;20064;-95
2024/01/10 10:32:12;;;;;;;4.50;2.50;;;;;;;3.77;72.19;102918.41;5076092;28;20040;-95
2024/01/10 10:34:50;;;;;;;4.63;2.85;;;;;;;3.31;71.42;102851.97;5082409;28;20565;-95
2024/01/10 10:37:17;;;;;;;4.55;2.63;;;;;;;3.01;71.49;102782.19;5085000;28;20020;-95
2024/01/10 10:39:44;;;;;;;5.78;2.88;;;;;;;3.28;71.47;102838.72;5097154;28;20028;-93
2024/01/10 10:42:29;;;;;;;4.95;3.15;;;;;;;3.60;71.43;102888.03;5093679;28;20032;-95
2024/01/10 10:44:58;;;;;;;4.38;2.70;;;;;;;3.28;71.89;102828.38;5093825;28;20095;-89
2024/01/10 10:47:32;;;;;;;4.65;3.10;;;;;;;3.39;71.66;102847.72;5072402;28;20037;-89
2024/01/10 10:49:59;;;;;;;4.75;2.78;;;;;;;3.25;71.82;102820.25;5071654;28;20051;-89
2024/01/10 10:52:30;;;;;;;4.88;2.67;;;;;;;3.64;71.15;102898.88;5072818;28;20028;-90
2024/01/10 10:55:04;;;;;;;5.88;3.20;;;;;;;3.71;71.00;102908.25;5091493;28;20056;-89
2024/01/10 10:57:48;;;;;;;5.20;2.97;;;;;;;3.66;71.16;102893.88;5059513;28;20032;-92
2024/01/10 11:00:26;;;;;;;5.80;3.25;;;;;;;3.12;71.60;102812.75;5050678;28;20032;-91
2024/01/10 11:02:54;;;;;;;6.53;3.58;;;;;;;3.41;71.65;102848.81;5040662;28;20036;-92
2024/01/10 11:05:43;;;;;;;7.97;3.40;;;;;;;3.65;70.94;102887.78;5039098;28;20020;-91
2024/01/10 11:08:23;;;;;;;9.02;3.80;;;;;;;3.52;71.25;102876.78;5076090;28;20056;-92
2024/01/10 11:10:50;;;;;;;7.32;3.83;;;;;;;3.32;71.78;102839.97;5049830;28;20036;-92
2024/01/10 11:13:41;;;;;;;7.55;3.90;;;;;;;3.59;71.80;102881.91;5035776;28;20029;-91
2024/01/10 11:19:55;;;;;;;9.45;4.63;;;;;;;3.67;71.11;102875.06;5074223;28;20036;-90
2024/01/10 11:22:40;;;;;;;8.80;4.40;;;;;;;3.69;70.95;102873.56;5049237;28;20025;-90
2024/01/10 11:25:07;;;;;;;9.30;4.78;;;;;;;3.46;71.30;102850.25;5041512;28;20060;-90
2024/01/10 11:27:34;;;;;;;13.45;5.30;;;;;;;3.30;70.90;102828.53;5037472;28;20035;-93
2024/01/10 11:30:01;;;;;;;15.73;6.38;;;;;;;3.35;71.55;102832.59;5054765;28;20028;-91
2024/01/10 11:32:35;;;;;;;13.23;5.60;;;;;;;3.25;71.62;102817.69;5038750;28;20127;-92
2024/01/10 11:35:20;;;;;;;15.18;5.78;;;;;;;3.66;71.44;102870.63;5035251;28;20056;-91
2024/01/10 11:37:49;;;;;;;12.23;5.85;;;;;;;3.69;71.97;102877.81;5040896;28;20040;-92
2024/01/10 11:40:48;;;;;;;12.23;5.78;;;;;;;3.63;72.28;102858.28;5028988;28;20015;-91
2024/01/10 11:43:19;;;;;;;11.80;5.65;;;;;;;3.46;71.66;102840.81;5034148;28;20035;-90
2024/01/10 11:46:04;;;;;;;15.50;6.28;;;;;;;3.42;71.73;102824.81;5034165;28;20379;-91
2024/01/10 11:48:31;;;;;;;11.90;5.82;;;;;;;3.29;71.83;102793.16;5051488;28;20520;-92
2024/01/10 11:51:16;;;;;;;13.18;6.20;;;;;;;3.21;71.98;102780.25;5041800;28;20036;-90
2024/01/10 11:53:52;;;;;;;10.68;6.38;;;;;;;3.54;70.91;102841.72;5069895;28;20078;-91
2024/01/10 11:56:19;;;;;;;13.43;6.10;;;;;;;3.38;72.01;102818.34;5067092;28;20075;-89
2024/01/10 11:59:11;;;;;;;9.32;5.65;;;;;;;3.75;71.54;102863.94;5062350;28;20051;-92
2024/01/10 12:01:44;;;;;;;10.50;5.40;;;;;;;3.65;72.06;102835.19;5068497;28;20058;-90
2024/01/10 12:04:11;;;;;;;11.65;5.43;;;;;;;3.53;71.75;102824.38;5068512;28;20052;-91
2024/01/10 12:06:37;;;;;;;11.65;5.70;;;;;;;3.78;72.40;102851.38;5072662;28;20032;-92
2024/01/10 12:09:13;;;;;;;10.82;5.93;;;;;;;4.10;71.73;102856.69;5063224;28;20043;-92
2024/01/10 12:12:00;;;;;;;10.60;5.93;;;;;;;4.09;71.04;102862.63;5072443;28;20029;-91
2024/01/10 12:14:27;;;;;;;10.20;5.60;;;;;;;3.72;71.14;102805.81;5070335;28;20554;-91
2024/01/10 12:17:04;;;;;;;12.15;5.55;;;;;;;3.23;71.44;102713.31;5064301;28;20024;-92
2024/01/10 12:19:55;;;;;;;11.25;5.20;;;;;;;4.08;72.07;102861.72;5061703;28;20489;-92
2024/01/10 12:22:25;;;;;;;13.25;5.88;;;;;;;3.78;72.12;102815.19;5089831;28;20089;-90
2024/01/10 12:24:52;;;;;;;10.60;5.78;;;;;;;3.86;71.73;102818.66;5090560;28;20420;-94
2024/01/10 12:27:19;;;;;;;10.85;5.75;;;;;;;4.00;72.22;102851.22;5076605;28;20096;-90
2024/01/10 12:30:02;;;;;;;12.70;6.50;;;;;;;3.83;71.60;102826.03;5070316;28;20039;-91
2024/01/10 12:32:31;;;;;;;10.30;5.82;;;;;;;3.80;71.83;102813.69;5064133;28;20055;-91
2024/01/10 12:35:03;;;;;;;11.50;5.78;;;;;;;4.05;72.23;102852.69;5081759;28;20024;-90
2024/01/10 12:37:35;;;;;;;9.73;5.75;;;;;;;3.85;72.41;102833.25;5065652;28;20250;-91
2024/01/10 12:40:04;;;;;;;16.10;6.38;;;;;;;3.46;72.18;102757.25;5068237;28;20498;-91
2024/01/10 12:42:30;;;;;;;11.30;5.93;;;;;;;3.40;71.84;102741.97;5068331;28;20039;-91
2024/01/10 12:45:01;;;;;;;10.40;5.68;;;;;;;3.91;71.69;102816.59;5069094;28;20028;-91
2024/01/10 12:47:34;;;;;;;10.00;5.68;;;;;;;3.76;72.01;102792.50;5087784;28;20036;-91
2024/01/10 12:50:15;;;;;;;9.02;5.85;;;;;;;4.02;72.27;102837.75;5077430;28;20059;-92
2024/01/10 12:52:48;;;;;;;12.63;5.90;;;;;;;3.91;71.98;102808.81;5069606;28;20034;-91
2024/01/10 12:55:20;;;;;;;11.35;6.00;;;;;;;4.15;71.79;102849.44;5075182;28;20084;-92
2024/01/10 12:58:15;;;;;;;10.60;6.15;;;;;;;4.29;71.35;102865.78;5041938;28;20045;-91
2024/01/10 13:00:41;;;;;;;14.18;5.57;;;;;;;3.84;72.02;102794.28;5056824;28;20035;-91
2024/01/10 13:03:49;;;;;;;10.85;5.57;;;;;;;4.16;72.89;102872.91;5050708;28;20032;-93
2024/01/10 13:06:18;;;;;;;;;;;;;;;4.26;72.68;102872.28;5066985;28;20029;-92
2024/01/10 13:08:46;;;;;;;11.75;6.15;;;;;;;3.72;72.85;102788.63;5061009;28;19913;-92
2024/01/10 13:11:14;;;;;;;10.52;5.70;;;;;;;4.02;72.51;102840.34;5044823;28;20025;-94
2024/01/10 13:13:43;;;;;;;10.10;5.60;;;;;;;3.74;72.13;102771.66;5069241;28;20037;-93
2024/01/10 13:16:10;;;;;;;9.80;5.63;;;;;;;4.31;72.21;102871.13;5047246;28;20024;-92